Time,TemperatureF,DewpointF,PressureIn,WindDirection,WindDirectionDegrees,WindSpeedMPH,WindSpeedGustMPH,Humidity,HourlyPrecipIn,Conditions,Clouds,dailyrainin,SoftwareType,DateUTC
2013-02-15 07:52:00,31.0,28.0,29.90,SSE,150,3.0,8.0,87,0.00,,,0.00,,2013-02-15 12:52:00,
2013-02-15 08:02:00,31.0,28.0,29.90,NNW,333,3.0,7.0,87,0.00,,,0.00,,2013-02-15 13:02:00,
2013-02-15 08:11:00,31.0,28.0,29.90,NNW,333,3.0,7.0,87,0.00,,,0.00,,2013-02-15 13:11:00,
2013-02-15 08:22:00,32.0,29.0,29.89,SSW,203,5.0,9.0,87,0.00,,,0.00,,2013-02-15 13:22:00,
2013-02-15 08:32:00,32.0,29.0,29.89,SSE,161,4.0,7.0,87,0.00,,,0.00,,2013-02-15 13:32:00,
2013-02-15 08:42:00,32.0,29.0,29.89,SSE,161,4.0,7.0,87,0.00,,,0.00,,2013-02-15 13:42:00,
2013-02-15 08:52:00,33.0,29.0,29.89,SSW,206,3.0,6.0,86,0.00,,,0.00,,2013-02-15 13:52:00,
2013-02-15 09:01:00,35.0,30.0,29.89,SSW,211,3.0,9.0,83,0.00,,,0.00,,2013-02-15 14:01:00,
2013-02-15 09:12:00,35.0,30.0,29.89,SSW,211,3.0,9.0,83,0.00,,,0.00,,2013-02-15 14:12:00,
2013-02-15 09:21:00,36.0,30.0,29.90,SE,128,4.0,11.0,80,0.00,,,0.00,,2013-02-15 14:21:00,
2013-02-15 09:32:00,37.0,31.0,29.90,SW,215,3.0,7.0,78,0.00,,,0.00,,2013-02-15 14:32:00,
2013-02-15 09:42:00,37.0,31.0,29.90,SW,215,3.0,7.0,78,0.00,,,0.00,,2013-02-15 14:42:00,
2013-02-15 09:52:00,38.0,31.0,29.91,SSW,194,7.0,12.0,76,0.00,,,0.00,,2013-02-15 14:52:00,
2013-02-15 10:02:00,38.0,31.0,29.90,SE,136,3.0,9.0,76,0.00,,,0.00,,2013-02-15 15:02:00,
2013-02-15 10:11:00,38.0,31.0,29.90,SE,136,3.0,9.0,76,0.00,,,0.00,,2013-02-15 15:11:00,
2013-02-15 10:22:00,40.0,32.0,29.90,SW,215,7.0,12.0,72,0.00,,,0.00,,2013-02-15 15:22:00,
2013-02-15 10:32:00,41.0,32.0,29.90,SSE,160,4.0,8.0,71,0.00,,,0.00,,2013-02-15 15:32:00,
2013-02-15 10:42:00,41.0,32.0,29.90,SSE,160,4.0,8.0,71,0.00,,,0.00,,2013-02-15 15:42:00,
2013-02-15 10:52:00,42.0,32.0,29.89,South,186,4.0,8.0,67,0.00,,,0.00,,2013-02-15 15:52:00,
2013-02-15 11:02:00,43.0,32.0,29.89,SSW,196,5.0,11.0,65,0.00,,,0.00,,2013-02-15 16:02:00,
2013-02-15 11:11:00,43.0,32.0,29.89,SSW,196,5.0,11.0,65,0.00,,,0.00,,2013-02-15 16:11:00,
2013-02-15 11:22:00,45.0,32.0,29.88,South,186,4.0,12.0,61,0.00,,,0.00,,2013-02-15 16:22:00,
2013-02-15 11:32:00,45.0,32.0,29.88,SW,226,6.0,11.0,59,0.00,,,0.00,,2013-02-15 16:32:00,
2013-02-15 11:42:00,45.0,32.0,29.88,SW,226,6.0,11.0,59,0.00,,,0.00,,2013-02-15 16:42:00,
2013-02-15 11:52:00,45.0,35.0,29.87,SE,126,3.0,11.0,67,0.00,,,0.00,,2013-02-15 16:52:00,
2013-02-15 12:01:00,46.0,35.0,29.87,SSE,154,3.0,8.0,66,0.00,,,0.00,,2013-02-15 17:01:00,
2013-02-15 12:11:00,46.0,35.0,29.86,SSW,198,6.0,13.0,64,0.00,,,0.00,,2013-02-15 17:11:00,
2013-02-15 12:21:00,46.0,35.0,29.86,SSW,198,6.0,13.0,64,0.00,,,0.00,,2013-02-15 17:21:00,
2013-02-15 12:32:00,46.0,35.0,29.85,SSE,148,5.0,14.0,64,0.00,,,0.00,,2013-02-15 17:32:00,
2013-02-15 12:42:00,46.0,35.0,29.85,SSE,148,5.0,14.0,64,0.00,,,0.00,,2013-02-15 17:42:00,
2013-02-15 12:52:00,46.0,35.0,29.84,SE,142,4.0,8.0,64,0.00,,,0.00,,2013-02-15 17:52:00,
2013-02-15 13:01:00,47.0,35.0,29.83,ESE,123,6.0,12.0,62,0.00,,,0.00,,2013-02-15 18:01:00,
2013-02-15 13:12:00,47.0,35.0,29.83,ESE,123,6.0,12.0,62,0.00,,,0.00,,2013-02-15 18:12:00,
2013-02-15 13:21:00,47.0,34.0,29.83,South,169,7.0,14.0,61,0.00,,,0.00,,2013-02-15 18:21:00,
2013-02-15 13:32:00,49.0,34.0,29.83,SSE,159,7.0,16.0,56,0.00,,,0.00,,2013-02-15 18:32:00,
2013-02-15 13:42:00,49.0,34.0,29.83,SSE,159,7.0,16.0,56,0.00,,,0.00,,2013-02-15 18:42:00,
2013-02-15 13:53:00,50.0,35.0,29.83,SW,225,4.0,10.0,57,0.00,,,0.00,,2013-02-15 18:53:00,
2013-02-15 14:01:00,49.0,34.0,29.82,East,80,5.0,11.0,56,0.00,,,0.00,,2013-02-15 19:01:00,
2013-02-15 14:11:00,49.0,34.0,29.82,East,80,5.0,11.0,56,0.00,,,0.00,,2013-02-15 19:11:00,
2013-02-15 14:22:00,49.0,34.0,29.82,South,175,5.0,15.0,57,0.00,,,0.00,,2013-02-15 19:22:00,
2013-02-15 14:32:00,49.0,35.0,29.82,ENE,76,4.0,11.0,58,0.00,,,0.00,,2013-02-15 19:32:00,
2013-02-15 14:42:00,49.0,35.0,29.82,ENE,76,4.0,11.0,58,0.00,,,0.00,,2013-02-15 19:42:00,
2013-02-15 14:52:00,51.0,35.0,29.81,WSW,250,4.0,12.0,55,0.00,,,0.00,,2013-02-15 19:52:00,
2013-02-15 15:01:00,52.0,34.0,29.81,SSW,203,7.0,14.0,50,0.00,,,0.00,,2013-02-15 20:01:00,
2013-02-15 15:11:00,52.0,34.0,29.81,SSW,203,7.0,14.0,50,0.00,,,0.00,,2013-02-15 20:11:00,
2013-02-15 15:21:00,52.0,33.0,29.81,SSE,164,6.0,15.0,49,0.00,,,0.00,,2013-02-15 20:21:00,
2013-02-15 15:32:00,52.0,33.0,29.82,WSW,244,6.0,12.0,49,0.00,,,0.00,,2013-02-15 20:32:00,
2013-02-15 15:42:00,52.0,33.0,29.82,WSW,244,6.0,12.0,49,0.00,,,0.00,,2013-02-15 20:42:00,
2013-02-15 15:52:00,52.0,33.0,29.82,South,191,7.0,16.0,49,0.00,,,0.00,,2013-02-15 20:52:00,
2013-02-15 16:02:00,52.0,33.0,29.81,South,184,5.0,10.0,49,0.00,,,0.00,,2013-02-15 21:02:00,
2013-02-15 16:11:00,52.0,33.0,29.81,South,184,5.0,10.0,49,0.00,,,0.00,,2013-02-15 21:11:00,
2013-02-15 16:22:00,52.0,33.0,29.81,South,184,5.0,10.0,49,0.00,,,0.00,,2013-02-15 21:22:00,
2013-02-15 16:32:00,52.0,34.0,29.81,SSE,161,4.0,7.0,51,0.00,,,0.00,,2013-02-15 21:32:00,
2013-02-15 16:42:00,52.0,34.0,29.81,SSE,161,4.0,7.0,51,0.00,,,0.00,,2013-02-15 21:42:00,
2013-02-15 16:52:00,49.0,36.0,29.81,SSE,150,4.0,10.0,60,0.00,,,0.00,,2013-02-15 21:52:00,
2013-02-15 17:02:00,48.0,36.0,29.81,SE,132,3.0,10.0,63,0.00,,,0.00,,2013-02-15 22:02:00,
2013-02-15 17:11:00,48.0,36.0,29.81,SE,132,3.0,10.0,63,0.00,,,0.00,,2013-02-15 22:11:00,
2013-02-15 17:22:00,46.0,36.0,29.82,WSW,241,6.0,11.0,69,0.00,,,0.00,,2013-02-15 22:22:00,
2013-02-15 17:32:00,45.0,36.0,29.82,South,176,4.0,9.0,71,0.00,,,0.00,,2013-02-15 22:32:00,
2013-02-15 17:42:00,45.0,36.0,29.82,South,176,4.0,9.0,71,0.00,,,0.00,,2013-02-15 22:42:00,
2013-02-15 17:52:00,44.0,36.0,29.82,South,175,4.0,11.0,73,0.00,,,0.00,,2013-02-15 22:52:00,
2013-02-15 18:02:00,44.0,36.0,29.82,South,178,5.0,10.0,74,0.00,,,0.00,,2013-02-15 23:02:00,
2013-02-15 18:11:00,44.0,36.0,29.82,South,178,5.0,10.0,74,0.00,,,0.00,,2013-02-15 23:11:00,
2013-02-15 18:21:00,44.0,36.0,29.82,SW,236,5.0,9.0,74,0.00,,,0.00,,2013-02-15 23:21:00,
2013-02-15 18:32:00,44.0,36.0,29.82,SSE,150,6.0,13.0,74,0.00,,,0.00,,2013-02-15 23:32:00,
2013-02-15 18:42:00,44.0,36.0,29.82,SSE,150,6.0,13.0,74,0.00,,,0.00,,2013-02-15 23:42:00,
2013-02-15 18:52:00,44.0,37.0,29.83,SW,214,6.0,9.0,75,0.00,,,0.00,,2013-02-15 23:52:00,
2013-02-15 19:02:00,43.0,36.0,29.83,SSW,194,6.0,11.0,76,0.00,,,0.00,,2013-02-16 00:02:00,
2013-02-15 19:11:00,43.0,36.0,29.83,SSW,194,6.0,11.0,76,0.00,,,0.00,,2013-02-16 00:11:00,
2013-02-15 19:22:00,43.0,36.0,29.83,SSW,202,5.0,9.0,76,0.00,,,0.00,,2013-02-16 00:22:00,
2013-02-15 19:32:00,42.0,35.0,29.83,SSW,213,6.0,10.0,77,0.00,,,0.00,,2013-02-16 00:32:00,
2013-02-15 19:42:00,42.0,35.0,29.83,SSW,213,6.0,10.0,77,0.00,,,0.00,,2013-02-16 00:42:00,
2013-02-15 19:51:00,42.0,35.0,29.83,SE,136,4.0,9.0,77,0.00,,,0.00,,2013-02-16 00:51:00,
2013-02-15 20:02:00,42.0,35.0,29.83,SSW,202,4.0,10.0,77,0.00,,,0.00,,2013-02-16 01:02:00,
2013-02-15 20:11:00,42.0,35.0,29.83,SSW,202,4.0,10.0,77,0.00,,,0.00,,2013-02-16 01:11:00,
2013-02-15 20:21:00,42.0,35.0,29.85,SSW,194,5.0,11.0,76,0.00,,,0.00,,2013-02-16 01:21:00,
2013-02-15 20:32:00,42.0,35.0,29.85,NNE,21,1.0,4.0,77,0.00,,,0.00,,2013-02-16 01:32:00,
2013-02-15 20:42:00,42.0,35.0,29.85,NNE,21,1.0,4.0,77,0.00,,,0.00,,2013-02-16 01:42:00,
2013-02-15 20:52:00,40.0,34.0,29.85,South,191,0.0,1.0,78,0.00,,,0.00,,2013-02-16 01:52:00,
2013-02-15 21:01:00,41.0,34.0,29.85,SW,225,2.0,2.0,76,0.00,,,0.00,,2013-02-16 02:01:00,
2013-02-15 21:11:00,41.0,34.0,29.85,SW,225,2.0,2.0,76,0.00,,,0.00,,2013-02-16 02:11:00,
2013-02-15 21:22:00,41.0,32.0,29.85,WSW,256,2.0,4.0,71,0.00,,,0.00,,2013-02-16 02:22:00,
2013-02-15 21:32:00,41.0,30.0,29.86,WSW,237,4.0,6.0,65,0.00,,,0.00,,2013-02-16 02:32:00,
2013-02-15 21:42:00,41.0,30.0,29.86,WSW,237,4.0,6.0,65,0.00,,,0.00,,2013-02-16 02:42:00,
2013-02-15 21:52:00,41.0,30.0,29.87,SW,221,3.0,5.0,65,0.00,,,0.00,,2013-02-16 02:52:00,
2013-02-15 22:02:00,41.0,30.0,29.87,West,264,3.0,6.0,64,0.00,,,0.00,,2013-02-16 03:02:00,
2013-02-15 22:11:00,41.0,30.0,29.87,West,264,3.0,6.0,64,0.00,,,0.00,,2013-02-16 03:11:00,
2013-02-15 22:21:00,40.0,28.0,29.87,SSW,213,2.0,4.0,63,0.00,,,0.00,,2013-02-16 03:21:00,
2013-02-15 22:32:00,40.0,28.0,29.87,WNW,290,2.0,4.0,62,0.00,,,0.00,,2013-02-16 03:32:00,
2013-02-15 22:42:00,40.0,28.0,29.87,WNW,290,2.0,4.0,62,0.00,,,0.00,,2013-02-16 03:42:00,
2013-02-15 22:52:00,39.0,28.0,29.86,WSW,237,1.0,2.0,64,0.00,,,0.00,,2013-02-16 03:52:00,
2013-02-15 23:01:00,39.0,28.0,29.85,WSW,246,0.0,1.0,65,0.00,,,0.00,,2013-02-16 04:01:00,
2013-02-15 23:11:00,39.0,28.0,29.85,WSW,246,0.0,1.0,65,0.00,,,0.00,,2013-02-16 04:11:00,
2013-02-15 23:21:00,39.0,28.0,29.85,WSW,246,0.0,1.0,65,0.00,,,0.00,,2013-02-16 04:21:00,
2013-02-15 23:32:00,37.0,27.0,29.86,NNE,24,1.0,3.0,68,0.00,,,0.00,,2013-02-16 04:32:00,
2013-02-15 23:42:00,37.0,27.0,29.86,NNE,24,1.0,3.0,68,0.00,,,0.00,,2013-02-16 04:42:00,
2013-02-15 23:52:00,36.0,28.0,29.87,WSW,257,1.0,2.0,72,0.00,,,0.00,,2013-02-16 04:52:00,